NMSU Main Campus Data

Date Time Air Temperature Relative Humidity Dewpoint Windchill Heat Index Wind Speed Wind Dir. Rain Solar Radiation Soil Temperature
2m 2m 3m 3m 10cm
US/Mountain F % F F F MPH deg in MJ/m^2 F
max avg avg
2020-08-01 00:05:00 80.6 44.5 57.0 80.6 80.8 10.8 19.6 12.6 304.7 328.1 0.00 0.0000000 96.0
2020-08-01 00:10:00 74.5 57.0 58.3 74.5 74.5 14.9 22.6 13.7 0.0 324.9 0.03 0.0000361 95.9
2020-08-01 00:15:00 74.1 57.8 58.3 74.1 74.1 6.9 16.2 11.1 5.0 5.8 0.00 0.0000562 95.8
2020-08-01 00:20:00 74.2 57.4 58.2 74.2 74.2 3.1 16.4 8.6 24.3 359.3 0.01 0.0000401 95.7
2020-08-01 00:25:00 75.0 53.6 57.0 75.0 75.0 6.5 16.0 8.8 339.7 20.6 0.00 0.0000120 95.6
2020-08-01 00:30:00 76.0 50.3 56.2 76.0 76.0 7.8 11.7 6.9 312.9 15.2 0.00 0.0000020 95.5
2020-08-01 00:35:00 77.1 48.9 56.4 77.1 77.1 7.1 12.1 7.9 45.0 20.3 0.00 0.0000000 95.4
2020-08-01 00:40:00 78.1 45.1 55.1 78.1 78.1 5.3 13.1 7.2 62.0 48.1 0.00 0.0000000 95.3
2020-08-01 00:45:00 78.5 41.8 53.4 78.5 78.5 7.2 12.2 6.2 42.3 51.4 0.00 0.0000000 95.3
2020-08-01 00:50:00 79.6 37.4 51.3 79.6 79.6 5.6 9.9 5.5 37.2 59.4 0.00 0.0000000 95.2
2020-08-01 00:55:00 80.9 35.1 50.8 80.9 80.9 10.1 10.1 6.4 118.9 95.2 0.00 0.0000000 95.1
2020-08-01 01:05:00 81.7 29.9 47.2 81.7 81.7 13.0 19.0 11.8 108.6 114.4 0.00 0.0000000 94.9
2020-08-01 01:10:00 81.2 33.5 49.7 81.2 81.2 6.9 14.6 9.9 92.3 124.0 0.00 0.0000000 94.8
2020-08-01 01:15:00 80.3 32.1 47.9 80.3 80.3 9.6 13.9 9.8 124.3 123.8 0.00 0.0000000 94.7
2020-08-01 01:20:00 80.1 31.7 47.4 80.1 80.1 1.3 12.4 6.8 45.9 138.9 0.00 0.0000000 94.6
2020-08-01 01:25:00 80.7 29.6 46.1 80.7 80.7 2.8 9.0 4.7 129.7 132.9 0.00 0.0000000 94.5
2020-08-01 01:30:00 82.2 28.1 46.0 82.2 82.2 3.3 8.0 4.5 175.8 135.7 0.00 0.0000000 94.4
2020-08-01 01:35:00 83.6 24.5 43.5 83.6 83.6 5.5 6.7 4.1 318.8 151.9 0.00 0.0000000 94.3
2020-08-01 01:40:00 82.7 30.8 48.8 82.7 82.7 3.3 7.6 4.3 259.4 311.6 0.00 0.0000000 94.2
2020-08-01 01:45:00 80.7 34.0 49.7 80.7 80.7 1.0 5.3 2.6 270.0 269.7 0.00 0.0000000 94.1
2020-08-01 01:50:00 79.9 34.6 49.6 79.9 79.9 0.8 5.8 3.2 313.0 285.1 0.00 0.0000000 93.9
2020-08-01 01:55:00 79.4 34.6 49.1 79.4 79.4 2.8 4.4 2.4 292.7 311.6 0.00 0.0000000 93.8
2020-08-01 02:00:00 79.8 36.2 50.6 79.8 79.8 3.1 4.4 3.4 34.7 5.4 0.00 0.0000000 93.7
2020-08-01 02:05:00 79.6 34.3 49.0 79.6 79.6 1.9 5.5 2.1 13.8 30.6 0.00 0.0000000 93.6
2020-08-01 02:10:00 79.6 35.1 49.6 79.6 79.6 1.7 4.4 2.7 320.2 349.2 0.00 0.0000000 93.5
2020-08-01 02:15:00 79.1 37.0 50.6 79.1 79.1 1.3 1.5 0.4 164.0 358.8 0.00 0.0000000 93.3
2020-08-01 02:20:00 78.6 43.9 54.8 78.6 78.6 0.0 1.2 0.2 229.9 160.8 0.00 0.0000000 93.3
2020-08-01 02:25:00 77.7 40.6 51.9 77.7 77.7 1.7 2.8 0.7 279.5 220.5 0.00 0.0000000 93.1
2020-08-01 02:30:00 76.7 43.7 53.0 76.7 76.7 2.1 2.6 1.9 323.2 298.9 0.00 0.0000000 93.0
2020-08-01 02:35:00 76.6 43.6 52.8 76.6 76.6 2.8 4.0 2.9 276.4 308.8 0.00 0.0000000 92.9
2020-08-01 02:40:00 77.0 39.8 50.7 77.0 77.0 1.3 4.6 2.7 42.5 343.4 0.00 0.0000000 92.8
2020-08-01 02:45:00 77.8 42.2 53.0 77.8 77.8 2.6 3.0 1.8 340.9 1.0 0.00 0.0000000 92.6
2020-08-01 02:50:00 77.5 40.9 51.9 77.5 77.5 0.0 3.0 1.2 129.7 26.8 0.00 0.0000000 92.6
2020-08-01 02:55:00 77.6 40.1 51.4 77.6 77.6 0.0 0.0 0.0 228.1 0.0 0.00 0.0000000 92.4
2020-08-01 03:00:00 77.4 46.0 55.0 77.4 77.4 3.5 3.5 1.1 341.2 303.7 0.00 0.0000000 92.3
2020-08-01 03:05:00 77.0 41.8 52.0 77.0 77.0 4.7 4.7 3.8 334.9 332.2 0.00 0.0000000 92.2
2020-08-01 03:10:00 77.4 42.9 53.1 77.4 77.4 2.2 4.0 2.7 33.9 353.8 0.00 0.0000000 92.1
2020-08-01 03:15:00 77.0 42.3 52.3 77.0 77.0 2.8 4.7 3.1 23.8 340.1 0.00 0.0000000 92.0
2020-08-01 03:20:00 77.0 41.5 51.8 77.0 77.0 3.3 5.8 4.1 0.6 346.5 0.00 0.0000000 91.9
2020-08-01 03:25:00 76.7 43.7 52.9 76.7 76.7 0.0 3.8 2.2 0.0 2.8 0.00 0.0000000 91.9
2020-08-01 03:30:00 76.4 43.0 52.2 76.4 76.4 0.0 1.9 0.4 34.9 38.5 0.00 0.0000000 91.8
2020-08-01 03:35:00 76.4 42.0 51.6 76.4 76.4 3.0 3.1 0.9 17.8 356.6 0.00 0.0000000 91.7
2020-08-01 03:40:00 75.8 45.0 52.9 75.8 75.8 1.7 3.7 2.6 294.4 318.9 0.00 0.0000000 91.6
2020-08-01 03:45:00 75.7 43.1 51.7 75.7 75.7 0.0 4.7 1.6 328.3 313.7 0.00 0.0000000 91.5
2020-08-01 03:50:00 76.0 43.3 52.1 76.0 76.0 0.0 0.0 0.0 208.6 0.0 0.00 0.0000000 91.4
2020-08-01 03:55:00 75.3 45.1 52.6 75.3 75.3 3.7 3.7 1.5 300.8 312.6 0.00 0.0000000 91.3
2020-08-01 04:00:00 75.0 44.8 52.2 75.0 75.0 0.0 3.8 1.1 232.1 283.5 0.00 0.0000000 91.2
2020-08-01 04:05:00 74.9 47.8 53.8 74.9 74.9 0.0 2.4 0.7 162.9 145.2 0.00 0.0000000 91.1
2020-08-01 04:10:00 75.1 44.0 51.7 75.1 75.1 0.0 2.8 0.5 317.5 336.3 0.00 0.0000000 91.0
2020-08-01 04:15:00 76.7 39.7 50.3 76.7 76.7 4.2 5.5 3.3 20.9 10.1 0.00 0.0000000 91.0
2020-08-01 04:20:00 77.5 38.5 50.2 77.5 77.5 3.1 5.1 3.2 29.9 25.3 0.00 0.0000000 90.8
2020-08-01 04:25:00 76.8 40.0 50.7 76.8 76.8 0.0 3.3 1.3 335.0 330.6 0.00 0.0000000 90.8
2020-08-01 04:30:00 76.3 42.1 51.6 76.3 76.3 0.0 2.4 0.7 257.2 314.7 0.00 0.0000000 90.7
2020-08-01 04:35:00 76.0 42.8 51.8 76.0 76.0 0.0 1.7 0.2 291.2 267.7 0.00 0.0000000 90.6
2020-08-01 04:40:00 75.1 43.9 51.7 75.1 75.1 4.2 4.7 3.4 298.1 310.7 0.00 0.0000000 90.5
2020-08-01 04:45:00 74.8 45.1 52.1 74.8 74.8 2.6 3.7 2.8 10.2 321.4 0.00 0.0000000 90.4
2020-08-01 04:50:00 75.2 45.9 53.0 75.2 75.2 1.2 2.2 1.4 298.7 312.5 0.00 0.0000000 90.4
2020-08-01 04:55:00 74.6 46.8 52.9 74.6 74.6 2.2 2.8 1.4 300.4 293.3 0.00 0.0000000 90.3
2020-08-01 05:00:00 74.0 47.7 52.9 74.0 74.0 2.4 2.8 2.1 285.8 310.6 0.00 0.0000000 90.2
2020-08-01 05:05:00 74.0 47.7 53.0 74.0 74.0 0.0 2.6 1.7 282.5 281.9 0.00 0.0000000 90.1
2020-08-01 05:10:00 73.6 50.6 54.2 73.6 73.6 1.2 1.3 0.4 279.8 283.4 0.00 0.0000000 90.0
2020-08-01 05:15:00 73.2 49.6 53.3 73.2 73.2 0.8 2.6 0.7 278.7 278.8 0.00 0.0000000 89.9
2020-08-01 05:20:00 73.1 51.7 54.3 73.1 73.1 0.0 3.8 0.9 256.9 255.7 0.00 0.0000000 89.8
2020-08-01 05:25:00 73.0 52.5 54.6 73.0 73.0 2.6 3.0 0.7 274.1 268.8 0.00 0.0000000 89.8
2020-08-01 05:30:00 72.5 53.1 54.5 72.5 72.5 0.0 1.9 0.4 65.4 272.1 0.00 0.0000000 89.7
2020-08-01 05:35:00 72.0 54.9 55.0 72.0 72.0 1.9 3.0 1.0 276.6 277.8 0.00 0.0000000 89.6
2020-08-01 05:40:00 71.6 56.3 55.2 71.6 71.6 1.7 3.0 2.0 269.3 275.8 0.00 0.0000000 89.5
2020-08-01 05:45:00 71.5 57.4 55.7 71.5 71.5 0.0 2.4 0.8 288.5 271.6 0.00 0.0000000 89.4
2020-08-01 05:50:00 71.1 57.2 55.2 71.1 71.1 0.0 0.8 0.1 217.4 233.7 0.00 0.0000000 89.3
2020-08-01 05:55:00 70.8 59.1 55.8 70.8 70.8 0.0 0.0 0.0 158.3 0.0 0.00 0.0000000 89.2
2020-08-01 06:00:00 70.9 59.7 56.2 70.9 70.9 0.0 0.0 0.0 136.3 0.0 0.00 0.0000161 89.2
2020-08-01 06:05:00 70.6 62.4 57.1 70.6 70.6 0.0 1.2 0.2 179.5 212.5 0.00 0.0000582 89.1
2020-08-01 06:10:00 70.4 60.6 56.2 70.4 70.4 0.0 0.0 0.0 158.6 0.0 0.00 0.0001526 89.0
2020-08-01 06:15:00 70.2 60.4 55.8 70.2 70.2 1.0 1.5 0.2 167.8 173.0 0.00 0.0003635 88.9
2020-08-01 06:20:00 69.8 63.3 56.7 69.8 69.8 0.0 1.0 0.0 143.7 187.9 0.00 0.0006387 88.9
2020-08-01 06:25:00 69.5 65.5 57.5 69.5 69.5 0.0 0.0 0.0 190.3 0.0 0.00 0.0011790 88.8
2020-08-01 06:30:00 69.3 65.3 57.1 69.3 69.3 0.0 0.8 0.0 158.2 183.0 0.00 0.0018901 88.7
2020-08-01 06:35:00 69.4 63.1 56.2 69.4 69.4 0.8 0.8 0.1 146.9 146.1 0.00 0.0027036 88.6
2020-08-01 06:40:00 69.5 64.9 57.2 69.5 69.5 1.0 1.7 0.3 20.5 115.3 0.00 0.0035633 88.6
2020-08-01 06:45:00 69.7 64.8 57.3 69.7 69.7 0.0 1.7 0.1 170.8 15.4 0.00 0.0044934 88.5
2020-08-01 06:50:00 69.7 62.2 56.1 69.7 69.7 1.7 1.7 0.3 338.1 335.4 0.00 0.0053433 88.4
2020-08-01 06:55:00 69.8 63.0 56.6 69.8 69.8 3.1 3.5 2.4 337.0 341.6 0.00 0.0060665 88.3
2020-08-01 07:00:00 70.1 63.0 56.9 70.1 70.1 0.0 2.6 0.2 4.8 18.0 0.00 0.0067215 88.3
2020-08-01 07:05:00 69.9 63.9 57.1 69.9 69.9 0.0 0.0 0.0 286.2 0.0 0.00 0.0074750 88.2
2020-08-01 07:10:00 70.3 61.8 56.6 70.3 70.3 1.3 3.0 0.6 20.0 32.4 0.00 0.0079411 88.1
2020-08-01 07:15:00 71.0 58.9 55.9 71.0 71.0 0.0 2.2 0.3 326.5 30.7 0.00 0.0090963 88.1
2020-08-01 07:20:00 71.4 56.6 55.2 71.4 71.4 3.5 4.2 2.3 321.2 306.6 0.00 0.0098555 88.0
2020-08-01 07:25:00 71.9 55.7 55.2 71.9 71.9 1.5 2.4 1.0 214.2 337.0 0.00 0.0180573 87.9
2020-08-01 07:30:00 72.0 56.6 55.7 72.0 72.0 4.0 4.4 1.4 328.2 301.9 0.00 0.0166291 87.9
2020-08-01 07:35:00 72.3 56.3 55.9 72.3 72.3 0.0 3.5 0.6 1.7 330.4 0.00 0.0163217 87.8
2020-08-01 07:40:00 72.6 55.2 55.7 72.6 72.6 3.7 5.3 3.1 342.8 348.1 0.00 0.0312669 87.7
2020-08-01 07:45:00 72.6 56.0 56.0 72.6 72.6 3.5 4.4 2.9 14.6 5.7 0.00 0.0550086 87.7
2020-08-01 07:50:00 72.9 55.5 56.0 72.9 72.9 3.0 5.1 3.5 8.8 4.9 0.00 0.0601108 87.6
2020-08-01 07:55:00 73.2 54.0 55.6 73.2 73.2 5.1 5.6 4.1 341.9 343.4 0.00 0.0661738 87.5
2020-08-01 08:00:00 73.4 55.4 56.5 73.4 73.4 3.8 5.5 4.2 342.6 334.3 0.00 0.0711028 87.5
2020-08-01 08:05:00 74.0 54.2 56.5 74.0 74.0 3.3 5.1 3.4 301.9 338.4 0.00 0.0760471 87.4
2020-08-01 08:10:00 73.9 52.8 55.6 73.9 73.9 3.5 5.1 3.7 323.9 324.6 0.00 0.0808355 87.4
2020-08-01 08:15:00 74.9 52.2 56.2 74.9 74.9 3.1 4.9 3.4 336.1 340.2 0.00 0.0856342 87.3
2020-08-01 08:20:00 75.2 51.5 56.2 75.2 75.2 2.4 4.9 3.6 329.0 343.3 0.00 0.0906634 87.3
2020-08-01 08:25:00 76.0 49.3 55.7 76.0 76.0 2.4 3.7 2.6 337.5 336.4 0.00 0.0958302 87.2
2020-08-01 08:30:00 76.7 49.1 56.2 76.7 76.7 1.9 2.8 1.6 300.3 314.3 0.00 0.1009941 87.2
2020-08-01 08:35:00 76.7 49.5 56.4 76.7 76.7 2.1 3.8 2.3 278.1 305.6 0.00 0.1062311 87.1
2020-08-01 08:40:00 77.0 49.7 56.8 77.0 77.0 3.3 3.3 2.1 312.2 297.7 0.00 0.1114146 87.1
2020-08-01 08:45:00 77.1 52.1 58.2 77.1 77.1 3.3 4.4 2.6 277.6 297.0 0.00 0.1163262 87.0
2020-08-01 08:50:00 77.3 50.2 57.3 77.3 77.3 3.3 3.5 2.3 271.7 306.8 0.00 0.1212871 87.0
2020-08-01 08:55:00 77.6 50.8 58.0 77.6 77.6 3.7 4.7 3.6 300.2 306.8 0.00 0.1260565 87.0
2020-08-01 09:00:00 78.1 46.5 55.9 78.1 78.1 2.4 5.3 4.0 318.4 312.6 0.00 0.1304316 86.9
2020-08-01 09:05:00 79.1 50.7 59.2 79.1 79.1 1.0 5.3 2.4 269.7 341.1 0.00 0.1354452 86.9
2020-08-01 09:10:00 79.5 41.5 54.1 79.5 79.5 4.4 6.7 3.7 0.4 342.2 0.00 0.1403922 86.9
2020-08-01 09:15:00 79.6 43.8 55.7 79.6 79.6 2.4 4.6 2.8 270.7 295.9 0.00 0.1451017 86.8
2020-08-01 09:20:00 80.2 45.4 57.1 80.2 80.5 1.9 4.0 2.1 287.5 317.2 0.00 0.1500093 86.8
2020-08-01 09:25:00 80.2 39.9 53.7 80.2 80.2 2.2 5.5 3.0 5.5 322.9 0.00 0.1545233 86.9
2020-08-01 09:30:00 81.1 42.4 56.1 81.1 80.9 1.2 3.3 1.9 284.9 312.2 0.00 0.1595738 86.9
2020-08-01 09:35:00 80.8 40.3 54.4 80.8 80.5 1.7 5.6 2.9 254.5 251.3 0.00 0.1640954 86.9
2020-08-01 09:40:00 81.2 40.4 54.9 81.2 80.9 1.3 4.9 2.9 280.6 297.9 0.00 0.1686950 86.9
2020-08-01 09:45:00 81.5 45.6 58.6 81.5 81.7 3.0 5.3 2.6 301.7 301.8 0.00 0.1729982 86.9
2020-08-01 09:50:00 82.2 38.7 54.6 82.2 82.2 2.6 5.8 2.9 38.2 354.4 0.00 0.1774501 87.0
2020-08-01 09:55:00 82.3 41.2 56.4 82.3 81.9 1.3 3.5 2.6 312.7 332.8 0.00 0.1816364 87.0
2020-08-01 10:00:00 82.8 38.3 54.8 82.8 82.8 4.0 6.3 2.8 323.4 330.8 0.00 0.1859164 87.1
2020-08-01 10:05:00 83.3 38.2 55.2 83.3 83.3 3.3 4.7 2.6 307.0 313.9 0.00 0.1901267 87.1
2020-08-01 10:10:00 83.8 42.3 58.4 83.8 83.4 0.0 4.4 1.8 213.2 346.5 0.00 0.1948384 87.2
2020-08-01 10:15:00 84.5 36.9 55.4 84.5 84.5 4.6 6.2 2.4 284.8 280.5 0.00 0.1989513 87.3
2020-08-01 10:20:00 84.3 38.2 56.0 84.3 84.3 3.3 3.5 2.1 332.4 254.6 0.00 0.2026652 87.3
2020-08-01 10:25:00 85.3 36.1 55.3 85.3 85.3 1.0 2.6 0.8 190.7 336.9 0.00 0.2067198 87.4
2020-08-01 10:30:00 86.3 35.4 55.7 86.3 86.3 0.8 2.6 1.0 78.1 196.6 0.00 0.2108626 87.5
2020-08-01 10:35:00 87.9 35.7 57.4 87.9 87.9 3.3 3.3 0.5 92.6 111.4 0.00 0.2147620 87.6
2020-08-01 10:40:00 86.7 34.8 55.6 86.7 86.7 1.5 5.1 2.3 164.2 64.9 0.00 0.2182937 87.7
2020-08-01 10:45:00 87.6 34.9 56.5 87.6 87.6 1.2 2.6 1.4 330.8 113.2 0.00 0.2221751 87.7
2020-08-01 10:50:00 86.5 35.0 55.6 86.5 86.5 1.2 4.2 2.9 60.0 28.5 0.00 0.2257702 87.9
2020-08-01 10:55:00 87.2 42.5 61.7 87.2 87.6 1.9 2.6 0.9 334.2 327.8 0.00 0.2290432 88.0
2020-08-01 11:00:00 87.3 37.5 58.2 87.3 87.3 1.0 4.0 1.9 255.0 304.8 0.00 0.2323406 88.1
2020-08-01 11:05:00 88.5 33.5 56.2 88.5 88.5 1.3 2.2 1.0 212.0 224.1 0.00 0.2359152 88.2
2020-08-01 11:10:00 88.4 33.4 55.9 88.4 88.4 1.3 4.9 1.9 110.5 100.8 0.00 0.2390857 88.3
2020-08-01 11:15:00 88.3 33.1 55.7 88.3 88.3 0.0 5.6 2.8 239.9 102.2 0.00 0.2415886 88.5
2020-08-01 11:20:00 88.4 32.7 55.4 88.4 88.4 3.7 3.7 2.0 292.5 61.4 0.00 0.2438824 88.6
2020-08-01 11:25:00 87.3 34.0 55.5 87.3 87.3 3.3 5.6 3.2 280.5 313.1 0.00 0.2464891 88.8
2020-08-01 11:30:00 88.8 32.3 55.4 88.8 88.8 3.0 3.3 1.5 117.4 345.9 0.00 0.2489380 88.9
2020-08-01 11:35:00 89.1 31.4 54.9 89.1 89.1 0.8 3.7 2.1 195.0 64.8 0.00 0.2524244 89.1
2020-08-01 11:40:00 90.4 28.7 53.5 90.4 90.4 0.8 2.2 0.8 333.0 250.8 0.00 0.2552013 89.2
2020-08-01 11:45:00 90.0 31.6 55.9 90.0 90.0 5.1 6.2 3.2 190.6 214.9 0.00 0.2572697 89.4
2020-08-01 11:50:00 89.9 31.4 55.5 89.9 89.9 3.7 6.7 3.5 118.7 209.8 0.00 0.2582943 89.5
2020-08-01 11:55:00 89.7 34.5 58.1 89.7 89.7 2.4 6.9 4.3 286.2 209.7 0.00 0.2605874 89.7
2020-08-01 12:00:00 89.8 30.4 54.6 89.8 89.8 2.6 5.6 3.6 245.6 214.3 0.00 0.2626483 89.9
2020-08-01 12:05:00 89.4 30.6 54.4 89.4 89.4 4.7 5.5 3.0 219.3 292.1 0.00 0.2628739 90.0
2020-08-01 12:10:00 89.4 30.9 54.8 89.4 89.4 5.5 6.3 4.8 207.9 233.4 0.00 0.2632789 90.2
2020-08-01 12:15:00 89.7 33.6 57.3 89.7 89.7 2.2 6.0 3.5 250.1 239.6 0.00 0.2642922 90.4
2020-08-01 12:20:00 89.4 32.9 56.4 89.4 89.4 3.1 6.5 4.2 216.8 228.4 0.00 0.2662666 90.6
2020-08-01 12:25:00 89.3 35.2 58.2 89.3 89.3 1.7 6.2 3.9 270.0 259.7 0.00 0.2669035 90.8
2020-08-01 12:30:00 90.2 29.0 53.6 90.2 90.2 4.6 7.6 2.9 208.6 225.8 0.00 0.2689747 91.0
2020-08-01 12:35:00 90.5 28.2 53.2 90.5 90.5 3.8 6.5 4.0 179.3 221.6 0.00 0.2705039 91.1
2020-08-01 12:40:00 90.8 23.6 48.6 90.8 90.8 3.7 7.8 5.3 239.3 209.3 0.00 0.2718685 91.3
2020-08-01 12:45:00 90.8 26.2 51.4 90.8 90.8 3.8 6.5 4.0 208.1 213.1 0.00 0.2725801 91.5
2020-08-01 12:50:00 91.4 26.7 52.5 91.4 91.4 6.5 6.7 4.0 169.0 201.2 0.00 0.2738560 91.7
2020-08-01 12:55:00 91.6 24.9 50.8 91.6 91.6 3.5 6.3 4.1 242.3 218.7 0.00 0.2745164 91.9
2020-08-01 13:00:00 90.8 26.6 51.8 90.8 90.8 6.0 7.4 4.6 233.4 229.3 0.00 0.2748603 92.0
2020-08-01 13:05:00 91.3 25.6 51.2 91.3 91.3 2.1 6.0 3.1 132.2 185.2 0.00 0.2752275 92.2
2020-08-01 13:10:00 91.7 26.7 52.7 91.7 91.7 3.5 9.6 3.8 139.5 137.3 0.00 0.2754847 92.4
2020-08-01 13:15:00 91.9 25.4 51.5 91.9 91.9 5.6 6.0 3.5 232.2 211.0 0.00 0.2760947 92.6
2020-08-01 13:20:00 91.5 25.9 51.7 91.5 91.5 0.0 6.2 3.4 287.6 255.2 0.00 0.2759838 92.7
2020-08-01 13:25:00 92.5 24.0 50.5 92.5 92.5 3.7 9.7 3.4 202.1 202.9 0.00 0.2759228 92.9
2020-08-01 13:30:00 93.3 23.4 50.4 93.3 93.3 5.5 5.6 3.0 238.3 207.7 0.00 0.2754905 93.0
2020-08-01 13:35:00 92.0 25.5 51.7 92.0 92.0 3.7 6.3 4.1 256.8 242.2 0.00 0.2749795 93.2
2020-08-01 13:40:00 92.3 23.0 49.2 92.3 92.3 2.6 5.8 2.8 161.5 218.9 0.00 0.2748179 93.3
2020-08-01 13:45:00 92.7 20.4 46.3 92.7 92.7 3.3 5.5 3.1 122.9 169.7 0.00 0.2747233 93.5
2020-08-01 13:50:00 93.1 21.3 47.7 93.1 93.1 3.3 6.2 3.8 240.6 191.0 0.00 0.2744259 93.7
2020-08-01 13:55:00 92.6 25.1 51.8 92.6 92.6 3.1 6.7 2.9 106.5 125.9 0.00 0.2734720 93.8
2020-08-01 14:00:00 94.0 22.2 49.6 94.0 94.0 6.3 7.8 3.7 232.1 176.3 0.00 0.2724202 94.0
2020-08-01 14:05:00 94.1 22.2 49.7 94.1 94.1 0.0 6.9 1.6 240.4 178.6 0.00 0.2713877 94.1
2020-08-01 14:10:00 94.0 23.7 51.4 94.0 94.0 2.2 4.2 1.3 306.7 314.9 0.00 0.2704189 94.2
2020-08-01 14:15:00 94.0 20.6 47.7 94.0 94.0 5.3 5.3 2.2 188.4 254.5 0.00 0.2696940 94.3
2020-08-01 14:20:00 94.0 21.3 48.5 94.0 94.0 4.2 4.2 2.5 169.1 210.5 0.00 0.2683118 94.4
2020-08-01 14:25:00 93.6 20.5 47.2 93.6 93.6 1.2 4.9 2.6 310.4 214.5 0.00 0.2663665 94.6
2020-08-01 14:30:00 94.8 21.8 49.8 94.8 94.8 2.4 3.1 0.6 274.3 275.1 0.00 0.2647618 94.6
2020-08-01 14:35:00 94.0 21.2 48.5 94.0 94.0 4.4 5.1 2.4 54.0 346.0 0.00 0.2633215 94.8
2020-08-01 14:40:00 93.5 25.9 53.3 93.5 93.5 3.3 5.6 4.0 298.5 342.0 0.00 0.2609703 94.9
2020-08-01 14:45:00 93.0 21.2 47.6 93.0 93.0 0.0 6.5 3.8 234.1 276.4 0.00 0.2584644 94.9
2020-08-01 14:50:00 93.7 22.2 49.4 93.7 93.7 2.6 7.6 3.3 267.4 245.8 0.00 0.2564107 95.0
2020-08-01 14:55:00 93.9 22.8 50.3 93.9 93.9 3.0 5.6 2.3 298.8 278.5 0.00 0.2538232 95.1
2020-08-01 15:00:00 93.4 21.2 48.0 93.4 93.4 2.2 5.1 3.3 140.9 289.3 0.00 0.2514352 95.3
2020-08-01 15:05:00 94.1 25.3 53.3 94.1 94.1 2.8 3.8 2.5 1.6 341.6 0.00 0.2488378 95.3
2020-08-01 15:10:00 94.3 22.6 50.4 94.3 94.3 2.6 3.1 2.0 302.2 340.0 0.00 0.2465529 95.5
2020-08-01 15:15:00 95.0 20.0 47.6 95.0 95.0 0.0 2.6 0.9 60.3 107.9 0.00 0.2440618 95.6
2020-08-01 15:20:00 95.8 21.2 49.8 95.8 95.8 3.1 3.8 1.2 284.1 293.4 0.00 0.2414903 95.6
2020-08-01 15:25:00 93.8 21.5 48.7 93.8 93.8 1.7 7.1 4.1 99.8 272.1 0.00 0.2379210 95.8
2020-08-01 15:30:00 95.8 20.1 48.4 95.8 95.8 0.0 5.5 1.3 163.0 190.3 0.00 0.2350301 95.9
2020-08-01 15:35:00 96.1 20.5 49.2 96.1 96.1 4.7 6.3 2.6 331.9 337.4 0.00 0.2322289 96.0
2020-08-01 15:40:00 95.4 20.4 48.5 95.4 95.4 1.9 4.9 3.6 48.3 358.4 0.00 0.2290323 96.1
2020-08-01 15:45:00 95.0 23.4 51.9 95.0 95.0 3.8 5.3 3.5 54.1 6.1 0.00 0.2256244 96.2
2020-08-01 15:50:00 95.6 20.4 48.7 95.6 95.6 1.2 5.8 2.4 78.8 73.3 0.00 0.2217646 96.4
2020-08-01 15:55:00 96.4 21.5 50.7 96.4 96.4 2.2 3.5 1.4 43.2 95.7 0.00 0.2185241 96.5
2020-08-01 16:00:00 97.6 21.2 51.4 97.6 97.6 3.3 4.0 2.3 137.5 180.0 0.00 0.2151076 96.6
2020-08-01 16:05:00 96.1 20.2 48.8 96.1 96.1 3.1 6.7 3.7 56.9 123.1 0.00 0.2110029 96.7
2020-08-01 16:10:00 96.6 19.7 48.6 96.6 96.6 3.0 4.2 2.3 196.2 74.9 0.00 0.2073179 96.8
2020-08-01 16:15:00 96.8 19.4 48.3 96.8 96.8 2.6 4.6 2.1 334.2 176.9 0.00 0.2050197 97.0
2020-08-01 16:20:00 96.9 24.5 54.8 96.9 96.9 3.5 6.0 2.2 320.7 278.0 0.00 0.2027838 97.1
2020-08-01 16:25:00 96.9 21.7 51.4 96.9 96.9 1.2 3.8 1.8 269.3 332.9 0.00 0.1905233 97.3
2020-08-01 16:30:00 97.3 18.7 47.8 97.3 97.3 2.2 4.9 1.9 195.4 194.8 0.00 0.2003661 97.4
2020-08-01 16:35:00 98.1 19.1 48.9 98.1 98.1 2.6 3.0 2.0 246.1 211.3 0.00 0.1751251 97.5
2020-08-01 16:40:00 98.0 18.4 47.9 98.0 98.0 3.3 3.3 1.2 325.6 299.8 0.00 0.1697597 97.6
2020-08-01 16:45:00 96.5 23.8 53.6 96.5 96.5 3.8 6.3 3.7 338.9 324.7 0.00 0.1638964 97.8
2020-08-01 16:50:00 95.9 21.9 50.8 95.9 95.9 3.5 6.7 3.9 69.8 2.1 0.00 0.1451840 97.9
2020-08-01 16:55:00 96.0 19.5 47.7 96.0 96.0 3.3 5.3 3.7 129.9 109.4 0.00 0.1343137 98.0
2020-08-01 17:00:00 96.1 19.5 47.9 96.1 96.1 1.3 6.0 2.0 23.1 357.0 0.00 0.1303121 98.1
2020-08-01 17:05:00 96.3 19.7 48.4 96.3 96.3 2.1 4.0 2.3 186.9 142.5 0.00 0.1044280 98.2
2020-08-01 17:10:00 96.4 19.9 48.7 96.4 96.4 2.4 3.8 2.0 196.4 162.9 0.00 0.0854937 98.3
2020-08-01 17:15:00 96.3 20.0 48.8 96.3 96.3 2.8 3.1 1.5 192.6 194.7 0.00 0.0786206 98.4
2020-08-01 17:20:00 95.9 21.3 50.1 95.9 95.9 0.0 3.5 1.6 87.5 118.6 0.00 0.0739973 98.5
2020-08-01 17:25:00 96.1 20.1 48.6 96.1 96.1 2.6 3.5 2.4 109.5 138.2 0.00 0.0707958 98.6
2020-08-01 17:30:00 96.4 20.9 50.1 96.4 96.4 0.0 3.3 2.4 65.5 119.6 0.00 0.0689086 98.7
2020-08-01 17:35:00 96.6 19.2 47.8 96.6 96.6 1.7 3.5 1.2 208.7 171.2 0.00 0.0628182 98.8
2020-08-01 17:40:00 96.5 20.6 49.6 96.5 96.5 2.1 2.4 1.7 233.4 163.1 0.00 0.0585727 98.9
2020-08-01 17:45:00 96.2 22.8 52.1 96.2 96.2 3.5 3.5 1.3 74.1 5.2 0.00 0.0558449 98.9
2020-08-01 17:50:00 95.9 19.1 47.2 95.9 95.9 1.3 4.0 2.2 184.5 145.9 0.00 0.0552067 99.0
2020-08-01 17:55:00 96.0 20.8 49.6 96.0 96.0 0.8 1.7 1.1 48.0 128.6 0.00 0.0553019 99.1
2020-08-01 18:00:00 95.8 21.0 49.7 95.8 95.8 0.0 5.3 2.0 61.8 83.7 0.00 0.0566439 99.1
2020-08-01 18:05:00 95.7 20.2 48.5 95.7 95.7 3.1 3.3 1.5 112.8 102.1 0.00 0.0689517 99.1
2020-08-01 18:10:00 95.6 20.7 49.1 95.6 95.6 3.1 5.1 1.9 111.9 106.5 0.00 0.0741623 99.2
2020-08-01 18:15:00 96.2 20.0 48.6 96.2 96.2 2.4 3.3 1.6 83.3 114.5 0.00 0.0988738 99.2
2020-08-01 18:20:00 96.4 20.7 49.7 96.4 96.4 0.0 4.9 1.8 67.2 88.5 0.00 0.0878020 99.2
2020-08-01 18:25:00 96.7 20.8 50.1 96.7 96.7 1.5 2.8 1.7 72.6 94.3 0.00 0.0717499 99.2
2020-08-01 18:30:00 96.2 20.2 49.0 96.2 96.2 2.4 4.9 2.6 103.7 102.2 0.00 0.0543056 99.2
2020-08-01 18:35:00 96.0 20.6 49.3 96.0 96.0 5.6 5.6 2.9 136.0 132.2 0.00 0.0568263 99.2
2020-08-01 18:40:00 94.6 25.0 53.4 94.6 94.6 5.3 11.7 6.3 66.8 107.1 0.00 0.0480086 99.2
2020-08-01 18:45:00 93.7 24.3 51.8 93.7 93.7 6.7 10.3 7.0 132.3 115.4 0.00 0.0673596 99.2
2020-08-01 18:50:00 93.5 24.4 51.8 93.5 93.5 5.5 9.7 7.3 113.1 109.4 0.00 0.0479939 99.2
2020-08-01 18:55:00 93.6 24.2 51.7 93.6 93.6 1.2 9.4 4.9 140.1 112.0 0.00 0.0347110 99.2
2020-08-01 19:00:00 93.5 23.9 51.3 93.5 93.5 4.7 9.0 5.6 116.6 115.4 0.00 0.0289742 99.1
2020-08-01 19:05:00 93.2 24.0 51.0 93.2 93.2 3.5 10.5 6.2 120.2 113.2 0.00 0.0281545 99.1
2020-08-01 19:10:00 92.8 24.4 51.2 92.8 92.8 3.8 9.7 5.4 121.6 125.0 0.00 0.0200067 99.1
2020-08-01 19:15:00 93.2 24.2 51.3 93.2 93.2 4.9 9.2 5.0 96.9 120.3 0.00 0.0140868 99.1
2020-08-01 19:20:00 92.9 24.2 51.0 92.9 92.9 4.0 8.8 3.3 110.3 123.0 0.00 0.0110672 99.1
2020-08-01 19:25:00 92.8 24.7 51.5 92.8 92.8 0.0 7.8 4.1 118.6 115.3 0.00 0.0082164 99.0
2020-08-01 19:30:00 92.6 24.5 51.1 92.6 92.6 5.5 8.3 4.3 103.9 122.1 0.00 0.0061374 99.0
2020-08-01 19:35:00 92.3 24.6 50.9 92.3 92.3 2.8 9.2 5.0 128.8 118.9 0.00 0.0043109 98.9
2020-08-01 19:40:00 92.5 24.2 50.7 92.5 92.5 5.5 7.8 5.1 104.9 120.3 0.00 0.0030919 98.9
2020-08-01 19:45:00 92.2 24.6 50.9 92.2 92.2 4.6 7.1 3.8 106.6 125.5 0.00 0.0024583 98.8
2020-08-01 19:50:00 92.0 24.6 50.7 92.0 92.0 1.9 6.0 3.6 106.6 118.2 0.00 0.0016121 98.8
2020-08-01 19:55:00 91.7 24.7 50.6 91.7 91.7 4.6 6.7 4.0 94.9 110.8 0.00 0.0010186 98.7
2020-08-01 20:00:00 91.4 24.1 49.6 91.4 91.4 7.8 8.5 5.0 106.0 114.8 0.00 0.0006316 98.7
2020-08-01 20:05:00 91.5 23.8 49.4 91.5 91.5 4.2 9.2 5.7 121.0 116.3 0.00 0.0004391 98.6
2020-08-01 20:10:00 90.7 24.3 49.3 90.7 90.7 5.3 10.6 6.1 116.5 114.1 0.00 0.0001965 98.5
2020-08-01 20:15:00 90.5 23.7 48.4 90.5 90.5 7.2 8.3 5.3 106.6 111.7 0.00 0.0000742 98.5
2020-08-01 20:20:00 90.4 23.8 48.4 90.4 90.4 2.8 7.1 4.2 93.8 119.6 0.00 0.0000040 98.4
2020-08-01 20:25:00 90.1 22.2 46.4 90.1 90.1 4.4 7.4 4.0 128.0 118.0 0.00 0.0000000 98.3
2020-08-01 20:30:00 90.1 22.5 46.8 90.1 90.1 0.0 7.4 3.5 122.5 124.3 0.00 0.0000000 98.3
2020-08-01 20:35:00 89.8 22.4 46.3 89.8 89.8 0.0 3.5 1.1 181.7 129.2 0.00 0.0000000 98.2
2020-08-01 20:40:00 88.5 28.9 52.1 88.5 88.5 6.9 7.4 3.8 328.8 296.5 0.00 0.0000000 98.2
2020-08-01 20:45:00 85.6 44.0 61.2 85.6 85.8 5.3 6.7 3.5 7.0 316.6 0.00 0.0000000 98.0
2020-08-01 20:50:00 82.7 47.6 60.8 82.7 83.1 4.4 8.0 4.1 46.5 15.2 0.00 0.0000361 97.9
2020-08-01 20:55:00 83.2 45.8 60.2 83.2 83.4 1.0 4.6 2.4 101.4 88.2 0.00 0.0000160 97.8
2020-08-01 21:00:00 83.1 44.1 59.0 83.1 83.0 4.0 6.5 3.4 21.6 120.3 0.01 0.0000120 97.8
2020-08-01 21:05:00 83.7 40.7 57.3 83.7 83.1 6.3 9.2 4.7 38.9 51.7 0.00 0.0000020 97.6
2020-08-01 21:10:00 79.4 54.4 61.5 79.4 79.4 6.9 13.9 9.1 46.3 45.4 0.01 0.0000000 97.5
2020-08-01 21:15:00 75.0 63.7 61.8 75.0 75.0 4.9 12.8 6.3 49.6 64.8 0.03 0.0000000 97.5
2020-08-01 21:20:00 74.4 57.6 58.4 74.4 74.4 3.8 7.2 4.3 70.6 71.8 0.01 0.0000000 97.4
2020-08-01 21:25:00 74.9 58.6 59.4 74.9 74.9 2.8 7.4 3.6 66.2 68.3 0.01 0.0000000 97.3
2020-08-01 21:30:00 73.0 69.9 62.6 73.0 73.0 3.1 6.0 3.3 33.1 63.4 0.06 0.0000000 97.2
2020-08-01 21:35:00 72.6 66.7 60.9 72.6 72.6 4.2 5.3 3.4 53.5 54.3 0.03 0.0000000 97.1
2020-08-01 21:40:00 72.1 68.3 61.1 72.1 72.1 5.8 8.7 5.8 105.4 101.1 0.03 0.0000000 97.0
2020-08-01 21:45:00 72.0 67.4 60.6 72.0 72.0 3.7 8.5 4.6 94.8 90.6 0.00 0.0000000 96.9
2020-08-01 21:50:00 73.3 60.0 58.6 73.3 73.3 4.4 7.1 4.8 117.5 100.4 0.00 0.0000000 96.8
2020-08-01 21:55:00 74.3 65.1 61.8 74.3 74.3 3.8 6.7 4.1 109.6 101.8 0.00 0.0000000 96.7
2020-08-01 22:00:00 74.9 65.3 62.5 74.9 74.9 3.1 6.3 3.9 92.1 100.8 0.00 0.0000000 96.5
2020-08-01 22:05:00 74.7 65.7 62.4 74.7 74.7 1.0 6.0 3.4 87.4 89.1 0.00 0.0000000 96.4
2020-08-01 22:10:00 75.1 65.1 62.5 75.1 75.1 3.1 6.7 3.0 88.7 88.2 0.00 0.0000000 96.3
2020-08-01 22:15:00 76.0 60.7 61.4 76.0 76.0 4.9 8.1 3.8 124.4 120.9 0.00 0.0000000 96.2
2020-08-01 22:20:00 76.0 64.1 63.0 76.0 76.0 1.0 4.2 2.7 194.6 143.9 0.00 0.0000000 96.0
2020-08-01 22:25:00 75.6 61.1 61.3 75.6 75.6 0.8 3.7 0.7 295.6 87.3 0.00 0.0000000 96.0
2020-08-01 22:30:00 75.5 68.6 64.4 75.5 75.5 4.0 4.2 2.1 233.5 244.2 0.00 0.0000000 95.8
2020-08-01 22:35:00 74.1 68.7 63.1 74.1 74.1 2.2 4.9 2.6 263.7 233.6 0.00 0.0000000 95.7
2020-08-01 22:40:00 74.4 65.3 62.0 74.4 74.4 2.1 2.8 2.1 26.3 324.6 0.00 0.0000000 95.5
2020-08-01 22:45:00 75.2 67.5 63.7 75.2 75.2 0.0 3.0 0.6 143.9 45.3 0.00 0.0000000 95.4
2020-08-01 22:50:00 75.3 70.6 65.1 75.3 75.3 0.0 1.0 0.1 139.2 214.1 0.00 0.0000000 95.2
2020-08-01 22:55:00 75.5 66.7 63.7 75.5 75.5 3.7 4.4 1.9 32.4 32.3 0.00 0.0000000 95.1
2020-08-01 23:00:00 76.3 51.2 57.0 76.3 76.3 4.0 10.5 4.3 39.4 29.4 0.00 0.0000000 94.9
2020-08-01 23:05:00 77.7 45.4 54.9 77.7 77.7 3.7 10.6 5.1 44.2 55.2 0.00 0.0000000 94.8
2020-08-01 23:10:00 77.9 48.5 56.9 77.9 77.9 4.7 7.8 3.7 76.2 73.4 0.00 0.0000000 94.7
2020-08-01 23:15:00 78.0 44.6 54.7 78.0 78.0 9.2 9.2 5.1 31.8 60.3 0.00 0.0000000 94.5
2020-08-01 23:20:00 77.8 44.9 54.7 77.8 77.8 6.7 10.5 6.6 38.1 40.4 0.00 0.0000000 94.4
2020-08-01 23:25:00 78.3 40.5 52.4 78.3 78.3 7.2 10.3 6.9 47.4 31.4 0.00 0.0000000 94.3
2020-08-01 23:30:00 78.6 41.7 53.4 78.6 78.6 3.3 5.6 3.6 25.9 24.5 0.00 0.0000000 94.1
2020-08-01 23:35:00 78.6 44.7 55.3 78.6 78.6 1.5 4.0 2.6 51.4 38.0 0.00 0.0000000 94.0
2020-08-01 23:40:00 78.2 42.7 53.7 78.2 78.2 2.2 3.3 1.8 336.5 7.3 0.00 0.0000000 93.8
2020-08-01 23:45:00 78.2 40.1 52.0 78.2 78.2 2.2 3.8 2.5 1.2 352.2 0.00 0.0000000 93.7
2020-08-01 23:50:00 78.5 42.3 53.7 78.5 78.5 0.0 4.2 2.5 31.3 351.4 0.00 0.0000000 93.6
2020-08-01 23:55:00 78.1 45.8 55.5 78.1 78.1 1.0 2.8 1.3 72.2 41.2 0.00 0.0000000 93.4
2020-08-02 00:00:00 77.3 50.6 57.5 77.3 77.3 3.1 6.0 2.6 114.9 145.5 0.00 0.0000000 93.3

Data is courtesy of the NM Climate Center. DO NOT USE IN LEGAL PROCEEDINGS.